createdAt,value
2022-09-28T00:00:54.737Z,9.87
2022-09-28T00:03:59.348Z,9.99
2022-09-28T00:07:01.939Z,9.87
2022-09-28T00:10:05.184Z,9.82
2022-09-28T00:13:08.237Z,9.76
2022-09-28T00:16:14.910Z,9.66
2022-09-28T00:19:18.199Z,9.44
2022-09-28T00:22:21.214Z,9.66
2022-09-28T00:25:25.010Z,9.84
2022-09-28T00:28:27.848Z,9.74
2022-09-28T00:31:33.241Z,9.85
2022-09-28T00:34:43.223Z,10.05
2022-09-28T00:37:45.832Z,10.10
2022-09-28T00:40:48.751Z,10.15
2022-09-28T00:43:52.529Z,10.22
2022-09-28T00:47:26.649Z,10.41
2022-09-28T00:50:32.145Z,10.38
2022-09-28T00:53:37.968Z,10.23
2022-09-28T00:56:46.221Z,10.29
2022-09-28T00:59:49.917Z,10.32
2022-09-28T01:02:53.123Z,10.28
2022-09-28T01:05:59.103Z,10.26
2022-09-28T01:09:05.930Z,10.38
2022-09-28T01:12:08.986Z,10.35
2022-09-28T01:15:12.089Z,10.45
2022-09-28T01:18:25.063Z,10.42
2022-09-28T01:21:27.791Z,10.43
2022-09-28T01:24:48.322Z,10.53
2022-09-28T01:27:57.735Z,10.38
2022-09-28T01:31:10.652Z,10.43
2022-09-28T01:34:34.977Z,10.37
2022-09-28T01:37:46.543Z,10.24
2022-09-28T01:40:50.685Z,10.19
2022-09-28T01:44:02.986Z,10.17
2022-09-28T01:47:11.713Z,10.24
2022-09-28T01:50:18.651Z,10.24
2022-09-28T01:53:27.924Z,10.22
2022-09-28T01:56:40.302Z,10.15
2022-09-28T01:59:53.355Z,9.98
2022-09-28T02:03:19.296Z,9.91
2022-09-28T02:06:28.127Z,9.87
2022-09-28T02:09:47.866Z,9.90
2022-09-28T02:12:57.364Z,9.75
2022-09-28T02:16:06.955Z,9.73
2022-09-28T02:19:13.190Z,9.66
2022-09-28T02:22:24.608Z,9.63
2022-09-28T02:25:38.313Z,9.53
2022-09-28T02:28:41.113Z,9.56
2022-09-28T02:31:44.335Z,9.54
2022-09-28T02:34:47.404Z,9.60
2022-09-28T02:37:50.528Z,9.64
2022-09-28T02:41:38.412Z,9.67
2022-09-28T02:44:58.913Z,9.54
2022-09-28T02:48:43.087Z,9.54
2022-09-28T02:51:58.238Z,9.56
2022-09-28T02:55:23.527Z,9.49
2022-09-28T02:59:06.750Z,9.58
2022-09-28T03:02:15.194Z,9.44
2022-09-28T03:05:21.323Z,9.50
2022-09-28T03:08:43.031Z,9.37
2022-09-28T03:11:53.885Z,9.34
2022-09-28T03:15:28.654Z,9.39
2022-09-28T03:18:33.077Z,9.45
2022-09-28T03:21:39.291Z,9.35
2022-09-28T03:24:42.168Z,9.38
2022-09-28T03:27:45.220Z,9.38
2022-09-28T03:30:48.288Z,9.29
2022-09-28T03:33:51.551Z,9.27
2022-09-28T03:36:54.434Z,9.35
2022-09-28T03:39:57.126Z,9.29
2022-09-28T03:43:01.223Z,9.32
2022-09-28T03:46:06.764Z,9.31
2022-09-28T03:49:10.782Z,9.27
2022-09-28T03:52:14.269Z,9.19
2022-09-28T03:55:17.289Z,9.18
2022-09-28T03:58:21.423Z,9.18
2022-09-28T04:01:24.487Z,9.26
2022-09-28T04:04:30.348Z,9.15
2022-09-28T04:07:33.117Z,9.05
2022-09-28T04:10:36.313Z,9.09
2022-09-28T04:13:42.323Z,9.10
2022-09-28T04:16:48.236Z,8.97
2022-09-28T04:19:51.810Z,9.04
2022-09-28T04:23:40.546Z,8.88
2022-09-28T04:26:52.137Z,8.86
2022-09-28T04:30:04.213Z,8.81
2022-09-28T04:33:08.766Z,8.81
2022-09-28T04:36:15.161Z,8.70
2022-09-28T04:39:21.866Z,8.69
2022-09-28T04:42:55.389Z,8.60
2022-09-28T04:46:39.322Z,8.55
2022-09-28T04:49:43.745Z,8.50
2022-09-28T04:52:46.513Z,8.40
2022-09-28T04:56:02.372Z,8.34
2022-09-28T04:59:05.495Z,8.29
2022-09-28T05:02:15.181Z,8.16
2022-09-28T05:05:18.890Z,8.12
2022-09-28T05:08:22.429Z,8.05
2022-09-28T05:11:26.023Z,8.00
2022-09-28T05:14:29.178Z,7.92
2022-09-28T05:17:31.920Z,7.82
2022-09-28T05:24:31.863Z,7.73
2022-09-28T05:27:57.183Z,7.66
2022-09-28T05:31:02.167Z,7.71
2022-09-28T05:34:07.348Z,7.76
2022-09-28T05:37:10.102Z,7.95
2022-09-28T05:40:13.841Z,8.22
2022-09-28T05:43:16.968Z,8.39
2022-09-28T05:46:21.242Z,8.56
2022-09-28T05:49:46.186Z,8.86
2022-09-28T05:52:58.553Z,8.94
2022-09-28T05:56:01.598Z,9.16
2022-09-28T05:59:06.287Z,9.41
2022-09-28T06:02:10.861Z,9.51
2022-09-28T06:05:14.002Z,9.78
2022-09-28T06:08:17.074Z,9.98
2022-09-28T06:11:20.433Z,10.12
2022-09-28T06:14:23.592Z,10.34
2022-09-28T06:17:26.669Z,10.53
2022-09-28T06:20:34.910Z,10.88
2022-09-28T06:23:41.039Z,11.00
2022-09-28T06:26:45.462Z,11.21
2022-09-28T06:29:48.801Z,11.38
2022-09-28T06:32:57.699Z,11.67
2022-09-28T06:36:01.921Z,11.71
2022-09-28T06:39:05.022Z,12.02
2022-09-28T06:42:08.979Z,12.17
2022-09-28T06:45:13.711Z,12.39
2022-09-28T06:48:18.400Z,12.62
2022-09-28T06:51:21.282Z,12.85
2022-09-28T06:54:25.862Z,12.94
2022-09-28T06:57:28.627Z,13.06
2022-09-28T07:00:35.616Z,13.15
2022-09-28T07:03:39.343Z,13.17
2022-09-28T07:06:47.809Z,13.55
2022-09-28T07:09:56.679Z,13.65
2022-09-28T07:13:05.594Z,13.76
2022-09-28T07:16:08.949Z,13.77
2022-09-28T07:19:11.930Z,14.09
2022-09-28T07:22:18.970Z,14.27
2022-09-28T07:25:24.215Z,14.39
2022-09-28T07:28:30.678Z,14.60
2022-09-28T07:31:35.222Z,15.12
2022-09-28T07:34:43.867Z,14.60
2022-09-28T07:37:46.888Z,14.61
2022-09-28T07:41:08.444Z,14.23
2022-09-28T07:44:11.525Z,14.55
2022-09-28T07:47:14.770Z,15.02
2022-09-28T07:50:22.701Z,15.11
2022-09-28T07:53:25.984Z,15.47
2022-09-28T07:56:31.013Z,15.28
2022-09-28T07:59:33.832Z,15.17
2022-09-28T08:02:38.185Z,15.58
2022-09-28T08:05:42.907Z,15.48
2022-09-28T08:08:45.915Z,15.62
2022-09-28T08:11:49.798Z,15.44
2022-09-28T08:14:55.930Z,15.34
2022-09-28T08:18:02.033Z,16.03
2022-09-28T08:21:25.030Z,16.18
2022-09-28T08:24:31.082Z,15.88
2022-09-28T08:27:34.267Z,16.35
2022-09-28T08:30:38.135Z,16.72
2022-09-28T08:33:42.183Z,16.42
2022-09-28T08:36:49.143Z,15.80
2022-09-28T08:39:53.497Z,16.16
2022-09-28T08:43:00.078Z,16.46
2022-09-28T08:46:03.599Z,16.82
2022-09-28T08:49:30.583Z,16.98
2022-09-28T08:52:39.149Z,15.99
2022-09-28T08:55:57.303Z,16.63
2022-09-28T08:59:05.736Z,15.99
2022-09-28T09:02:33.661Z,16.45
2022-09-28T09:05:56.186Z,17.04
2022-09-28T09:09:13.540Z,16.41
2022-09-28T09:12:33.400Z,16.77
2022-09-28T09:15:48.241Z,17.86
2022-09-28T09:19:00.155Z,16.44
2022-09-28T09:22:19.952Z,15.84
2022-09-28T09:25:55.088Z,15.54
2022-09-28T09:29:51.851Z,15.27
2022-09-28T09:33:27.248Z,15.09
2022-09-28T09:36:53.899Z,15.52
2022-09-28T09:40:36.524Z,15.21
2022-09-28T09:44:18.420Z,16.84
2022-09-28T09:47:32.292Z,17.24
2022-09-28T09:50:55.769Z,16.84
2022-09-28T09:54:24.052Z,15.97
2022-09-28T09:57:41.391Z,16.64
2022-09-28T10:00:47.370Z,17.14
2022-09-28T10:03:52.845Z,16.90
2022-09-28T10:07:09.844Z,17.16
2022-09-28T10:10:50.952Z,17.00
2022-09-28T10:13:54.164Z,18.10
2022-09-28T10:17:05.831Z,17.90
2022-09-28T10:30:40.380Z,17.22
2022-09-28T10:33:43.331Z,17.28
2022-09-28T10:36:51.434Z,16.82
2022-09-28T10:39:56.419Z,17.58
2022-09-28T10:43:02.138Z,17.81
2022-09-28T10:46:10.746Z,17.12
2022-09-28T10:49:17.656Z,16.37
2022-09-28T10:52:41.699Z,16.03
2022-09-28T10:59:30.479Z,16.12
2022-09-28T11:02:38.693Z,16.28
2022-09-28T11:05:43.332Z,16.14
2022-09-28T11:08:50.129Z,16.09
2022-09-28T11:15:19.767Z,16.13
2022-09-28T11:18:32.552Z,16.41
2022-09-28T11:21:43.770Z,16.63
2022-09-28T11:24:47.681Z,17.20
2022-09-28T11:27:53.715Z,17.19
2022-09-28T11:31:01.533Z,17.49
2022-09-28T11:34:31.364Z,16.98
2022-09-28T11:37:55.073Z,17.00
2022-09-28T11:41:24.479Z,16.84
2022-09-28T11:44:46.526Z,16.61
2022-09-28T11:47:58.870Z,17.17
2022-09-28T11:54:38.990Z,17.37
2022-09-28T11:57:46.624Z,17.31
2022-09-28T12:01:39.009Z,17.57
2022-09-28T12:08:53.692Z,16.44
2022-09-28T12:12:03.929Z,16.49
2022-09-28T12:15:34.919Z,16.44
2022-09-28T12:18:57.329Z,16.78
2022-09-28T12:22:09.184Z,16.84
2022-09-28T12:25:33.774Z,16.63
2022-09-28T12:28:55.563Z,16.91
2022-09-28T12:32:16.834Z,17.18
2022-09-28T12:35:57.362Z,16.74
2022-09-28T12:39:46.801Z,16.61
2022-09-28T12:43:20.086Z,16.94
2022-09-28T12:46:42.482Z,16.20
2022-09-28T12:53:50.847Z,16.17
2022-09-28T12:57:21.809Z,16.05
2022-09-28T13:01:00.486Z,16.03
2022-09-28T13:04:26.593Z,15.92
2022-09-28T13:07:50.941Z,15.73
2022-09-28T13:11:15.860Z,15.73
2022-09-28T13:14:54.615Z,15.68
2022-09-28T13:18:27.562Z,15.78
2022-09-28T13:21:49.072Z,15.86
2022-09-28T13:24:56.704Z,15.88
2022-09-28T13:28:05.237Z,15.96
2022-09-28T13:31:10.818Z,16.09
2022-09-28T13:34:20.636Z,16.12
2022-09-28T13:41:04.848Z,16.57
2022-09-28T13:44:16.706Z,16.88
2022-09-28T13:47:44.775Z,17.01
2022-09-28T13:51:09.383Z,16.83
2022-09-28T13:54:26.010Z,16.94
2022-09-28T13:57:42.369Z,16.99
2022-09-28T14:00:59.473Z,17.00
2022-09-28T14:04:21.951Z,16.76
2022-09-28T14:10:52.675Z,16.64
2022-09-28T14:13:59.001Z,16.80
2022-09-28T14:17:28.293Z,16.90
2022-09-28T14:20:48.627Z,16.79
2022-09-28T14:24:13.821Z,16.83
2022-09-28T14:27:34.264Z,16.78
2022-09-28T14:30:43.417Z,17.01
2022-09-28T14:33:59.928Z,16.81
2022-09-28T14:37:31.970Z,16.85
2022-09-28T14:41:11.270Z,16.84
2022-09-28T14:44:18.800Z,16.60
2022-09-28T14:47:35.908Z,16.39
2022-09-28T14:50:55.832Z,16.32
2022-09-28T14:54:05.880Z,16.25
2022-09-28T14:57:18.363Z,16.28
2022-09-28T15:00:24.562Z,16.38
2022-09-28T15:03:30.842Z,16.40
2022-09-28T15:06:49.190Z,16.36
2022-09-28T15:09:54.323Z,16.35
2022-09-28T15:13:01.311Z,16.32
2022-09-28T15:16:10.472Z,16.32
2022-09-28T15:19:24.599Z,16.28
2022-09-28T15:22:28.383Z,16.37
2022-09-28T15:25:32.930Z,16.33
2022-09-28T15:28:36.874Z,16.33
2022-09-28T15:31:39.897Z,16.25
2022-09-28T15:34:51.635Z,16.16
2022-09-28T15:38:04.261Z,16.09
2022-09-28T15:41:12.478Z,15.98
2022-09-28T15:44:15.544Z,15.98
2022-09-28T15:47:27.479Z,15.92
2022-09-28T15:50:33.503Z,15.86
2022-09-28T15:53:44.073Z,15.86
2022-09-28T15:56:57.782Z,15.79
2022-09-28T16:00:01.126Z,15.69
2022-09-28T16:03:06.804Z,15.62
2022-09-28T16:06:10.803Z,15.53
2022-09-28T16:09:34.629Z,15.46
2022-09-28T16:12:58.872Z,15.41
2022-09-28T16:16:02.247Z,15.36
2022-09-28T16:19:05.933Z,15.34
2022-09-28T16:22:18.781Z,15.24
2022-09-28T16:25:25.858Z,15.19
2022-09-28T16:28:35.042Z,15.13
2022-09-28T16:31:41.456Z,15.11
2022-09-28T16:34:44.267Z,15.05
2022-09-28T16:38:03.465Z,15.00
2022-09-28T16:41:06.499Z,15.01
2022-09-28T16:44:20.817Z,15.02
2022-09-28T16:47:23.931Z,14.90
2022-09-28T16:50:27.814Z,14.90
2022-09-28T16:53:49.046Z,14.92
2022-09-28T16:56:51.918Z,14.82
2022-09-28T16:59:54.598Z,14.80
2022-09-28T17:02:59.996Z,14.77
2022-09-28T17:06:08.551Z,14.72
2022-09-28T17:09:16.019Z,14.60
2022-09-28T17:12:22.990Z,14.47
2022-09-28T17:59:53.935Z,13.27
2022-09-28T18:09:41.918Z,13.02
2022-09-28T18:12:45.748Z,13.00
2022-09-28T18:15:52.221Z,12.92
2022-09-28T18:18:55.477Z,13.05
2022-09-28T18:21:58.544Z,12.97
2022-09-28T18:25:01.858Z,12.82
2022-09-28T18:28:04.767Z,12.78
2022-09-28T18:31:12.741Z,12.82
2022-09-28T18:34:15.824Z,12.84
2022-09-28T18:48:50.680Z,12.89
2022-09-28T18:51:54.456Z,12.75
2022-09-28T18:55:18.031Z,12.75
2022-09-28T18:58:47.575Z,12.87
2022-09-28T19:02:11.706Z,12.82
2022-09-28T19:05:14.740Z,12.63
2022-09-28T19:08:17.810Z,12.57
2022-09-28T19:11:20.845Z,12.76
2022-09-28T19:14:23.879Z,12.49
2022-09-28T19:17:27.860Z,12.53
2022-09-28T19:20:32.972Z,12.69
2022-09-28T19:23:37.382Z,12.55
2022-09-28T19:26:41.772Z,12.61
2022-09-28T19:29:44.852Z,12.55
2022-09-28T19:32:47.636Z,12.57
2022-09-28T19:35:58.711Z,12.53
2022-09-28T19:39:03.515Z,12.46
2022-09-28T19:42:07.261Z,12.47
2022-09-28T19:45:10.849Z,12.46
2022-09-28T19:48:13.743Z,12.44
2022-09-28T19:51:16.405Z,12.50
2022-09-28T19:54:19.506Z,12.51
2022-09-28T19:57:27.886Z,12.49
2022-09-28T20:00:33.988Z,12.52
2022-09-28T20:03:38.689Z,12.46
2022-09-28T20:06:42.443Z,12.56
2022-09-28T20:09:45.742Z,12.54
2022-09-28T20:12:48.402Z,12.53
2022-09-28T20:15:51.342Z,12.56
2022-09-28T20:18:58.452Z,12.52
2022-09-28T20:22:03.088Z,12.49
2022-09-28T20:25:06.605Z,12.47
2022-09-28T20:28:09.725Z,12.43
2022-09-28T20:31:15.383Z,12.47
2022-09-28T20:34:18.350Z,12.43
2022-09-28T20:37:20.954Z,12.47
2022-09-28T20:40:23.912Z,12.52
2022-09-28T20:43:27.955Z,12.42
2022-09-28T20:46:31.012Z,12.49
